Time,TemperatureF,DewpointF,PressureIn,WindDirection,WindDirectionDegrees,WindSpeedMPH,WindSpeedGustMPH,Humidity,HourlyPrecipIn,Conditions,Clouds,dailyrainin,SoftwareType,DateUTC
2013-04-14 00:00:00,47.7,33.6,29.98,SW,225,1.6,2.2,58,0.00,,,0.04,pywws,2013-04-14 04:00:00,
2013-04-14 00:01:00,47.7,33.6,29.98,SW,225,1.6,2.2,58,0.00,,,0.00,pywws,2013-04-14 04:01:00,
2013-04-14 00:03:00,47.7,33.6,29.98,SW,225,1.6,2.2,58,0.00,,,0.00,pywws,2013-04-14 04:03:00,
2013-04-14 00:07:00,47.8,33.4,29.99,West,270,1.6,3.1,57,0.00,,,0.00,pywws,2013-04-14 04:07:00,
2013-04-14 00:12:00,47.8,33.4,29.98,East,90,1.6,2.2,57,0.00,,,0.00,pywws,2013-04-14 04:12:00,
2013-04-14 00:18:00,48.2,32.3,29.98,NW,315,0.7,1.6,54,0.00,,,0.00,pywws,2013-04-14 04:18:00,
2013-04-14 00:24:00,48.2,32.8,29.99,North,0,0.7,2.2,55,0.00,,,0.00,pywws,2013-04-14 04:24:00,
2013-04-14 00:29:00,48.2,32.8,29.99,North,0,1.6,2.2,55,0.00,,,0.00,pywws,2013-04-14 04:29:00,
2013-04-14 00:35:00,48.0,33.1,29.99,North,0,0.7,1.6,56,0.00,,,0.00,pywws,2013-04-14 04:35:00,
2013-04-14 00:40:00,48.2,32.3,29.98,NW,315,1.6,2.2,54,0.00,,,0.00,pywws,2013-04-14 04:40:00,
2013-04-14 00:46:00,48.2,32.8,29.98,North,0,0.0,0.7,55,0.00,,,0.00,pywws,2013-04-14 04:46:00,
2013-04-14 00:51:00,48.0,33.1,29.99,North,0,0.7,2.2,56,0.00,,,0.00,pywws,2013-04-14 04:51:00,
2013-04-14 00:56:00,48.0,33.1,29.99,North,0,0.7,1.6,56,0.00,,,0.00,pywws,2013-04-14 04:56:00,
2013-04-14 01:02:00,48.2,32.8,29.99,West,270,0.7,1.6,55,0.00,,,0.00,pywws,2013-04-14 05:02:00,
2013-04-14 01:08:00,48.0,34.0,29.99,SW,225,0.7,1.6,58,0.00,,,0.00,pywws,2013-04-14 05:08:00,
2013-04-14 01:13:00,47.8,33.8,29.99,SW,225,0.0,1.6,58,0.00,,,0.00,pywws,2013-04-14 05:13:00,
2013-04-14 01:19:00,47.8,33.8,29.98,NE,45,0.0,0.0,58,0.00,,,0.00,pywws,2013-04-14 05:19:00,
2013-04-14 01:24:00,47.7,34.0,29.99,NW,315,0.7,1.6,59,0.00,,,0.00,pywws,2013-04-14 05:24:00,
2013-04-14 01:30:00,47.5,33.4,29.99,NE,45,0.0,1.6,58,0.00,,,0.00,pywws,2013-04-14 05:30:00,
2013-04-14 01:36:00,47.5,33.4,29.99,SW,225,0.7,1.6,58,0.00,,,0.00,pywws,2013-04-14 05:36:00,
2013-04-14 01:41:00,47.7,33.6,29.99,NW,315,0.7,1.6,58,0.00,,,0.00,pywws,2013-04-14 05:41:00,
2013-04-14 01:47:00,47.7,33.6,29.99,West,270,1.6,2.2,58,0.00,,,0.00,pywws,2013-04-14 05:47:00,
2013-04-14 01:52:00,47.7,33.6,29.99,NW,315,2.2,3.1,58,0.00,,,0.00,pywws,2013-04-14 05:52:00,
2013-04-14 01:57:00,47.7,33.6,29.99,South,180,2.2,3.8,58,0.00,,,0.00,pywws,2013-04-14 05:57:00,
2013-04-14 02:03:00,47.8,33.8,29.99,NE,45,0.0,0.7,58,0.00,,,0.00,pywws,2013-04-14 06:03:00,
2013-04-14 02:08:00,47.8,33.8,29.99,ESE,112,0.7,1.6,58,0.00,,,0.00,pywws,2013-04-14 06:08:00,
2013-04-14 02:14:00,48.0,34.0,29.99,West,270,0.7,1.6,58,0.00,,,0.00,pywws,2013-04-14 06:14:00,
2013-04-14 02:20:00,48.0,34.0,29.98,NW,315,1.6,3.8,58,0.00,,,0.00,pywws,2013-04-14 06:20:00,
2013-04-14 02:25:00,48.0,34.0,29.98,West,270,1.6,2.2,58,0.00,,,0.00,pywws,2013-04-14 06:25:00,
2013-04-14 02:31:00,48.0,34.4,29.98,West,270,2.2,3.8,59,0.00,,,0.00,pywws,2013-04-14 06:31:00,
2013-04-14 02:36:00,48.0,34.8,29.98,North,0,1.6,3.1,60,0.00,,,0.00,pywws,2013-04-14 06:36:00,
2013-04-14 02:42:00,48.0,34.8,29.98,SW,225,1.6,3.1,60,0.00,,,0.00,pywws,2013-04-14 06:42:00,
2013-04-14 02:48:00,48.2,34.6,29.98,North,0,1.6,3.1,59,0.00,,,0.00,pywws,2013-04-14 06:48:00,
2013-04-14 02:53:00,48.0,35.2,29.98,SW,225,1.6,3.1,61,0.00,,,0.00,pywws,2013-04-14 06:53:00,
2013-04-14 02:59:00,48.0,35.2,29.98,West,270,0.7,2.2,61,0.00,,,0.00,pywws,2013-04-14 06:59:00,
2013-04-14 03:04:00,48.0,34.8,29.98,NW,315,1.6,2.2,60,0.00,,,0.00,pywws,2013-04-14 07:04:00,
2013-04-14 03:10:00,47.8,34.6,29.98,East,90,1.6,3.1,60,0.00,,,0.00,pywws,2013-04-14 07:10:00,
2013-04-14 03:16:00,48.0,34.8,29.97,North,0,0.7,1.6,60,0.00,,,0.00,pywws,2013-04-14 07:16:00,
2013-04-14 03:21:00,47.8,34.6,29.97,North,0,1.6,3.1,60,0.00,,,0.00,pywws,2013-04-14 07:21:00,
2013-04-14 03:27:00,47.7,34.5,29.98,NW,315,2.2,4.5,60,0.00,,,0.00,pywws,2013-04-14 07:27:00,
2013-04-14 03:32:00,47.8,34.2,29.97,NW,315,0.7,2.2,59,0.00,,,0.00,pywws,2013-04-14 07:32:00,
2013-04-14 03:38:00,47.8,34.6,29.97,NW,315,1.6,2.2,60,0.00,,,0.00,pywws,2013-04-14 07:38:00,
2013-04-14 03:44:00,47.7,34.9,29.97,West,270,1.6,3.8,61,0.00,,,0.00,pywws,2013-04-14 07:44:00,
2013-04-14 03:49:00,47.5,34.3,29.98,North,0,2.2,3.8,60,0.00,,,0.00,pywws,2013-04-14 07:49:00,
2013-04-14 03:55:00,47.7,34.9,29.98,North,0,0.7,1.6,61,0.00,,,0.00,pywws,2013-04-14 07:55:00,
2013-04-14 04:00:00,47.7,34.0,29.98,North,0,1.6,3.1,59,0.00,,,0.00,pywws,2013-04-14 08:00:00,
2013-04-14 04:06:00,47.7,34.0,29.98,North,0,1.6,3.1,59,0.00,,,0.00,pywws,2013-04-14 08:06:00,
2013-04-14 04:12:00,47.5,34.3,29.97,NW,315,1.6,2.2,60,0.00,,,0.00,pywws,2013-04-14 08:12:00,
2013-04-14 04:17:00,47.7,34.5,29.97,North,0,0.7,1.6,60,0.00,,,0.00,pywws,2013-04-14 08:17:00,
2013-04-14 04:23:00,47.5,34.3,29.98,North,0,0.7,1.6,60,0.00,,,0.00,pywws,2013-04-14 08:23:00,
2013-04-14 04:28:00,47.5,34.3,29.97,NE,45,1.6,2.2,60,0.00,,,0.00,pywws,2013-04-14 08:28:00,
2013-04-14 04:34:00,47.3,34.1,29.98,SW,225,1.6,4.5,60,0.00,,,0.00,pywws,2013-04-14 08:34:00,
2013-04-14 04:40:00,47.3,34.1,29.98,North,0,1.6,3.1,60,0.00,,,0.00,pywws,2013-04-14 08:40:00,
2013-04-14 04:45:00,47.5,34.3,29.98,NW,315,0.7,2.2,60,0.00,,,0.00,pywws,2013-04-14 08:45:00,
2013-04-14 04:51:00,47.3,34.5,29.98,North,0,0.0,0.7,61,0.00,,,0.00,pywws,2013-04-14 08:51:00,
2013-04-14 04:57:00,47.1,34.4,29.98,SE,135,1.6,2.2,61,0.00,,,0.00,pywws,2013-04-14 08:57:00,
2013-04-14 05:02:00,47.1,34.0,29.98,South,180,0.7,1.6,60,0.00,,,0.00,pywws,2013-04-14 09:02:00,
2013-04-14 05:07:00,47.1,34.4,29.98,North,0,0.0,0.0,61,0.00,,,0.00,pywws,2013-04-14 09:07:00,
2013-04-14 05:12:00,46.9,34.2,29.98,NE,45,0.7,1.6,61,0.00,,,0.00,pywws,2013-04-14 09:12:00,
2013-04-14 05:18:00,46.9,34.2,29.98,East,90,2.2,3.1,61,0.00,,,0.00,pywws,2013-04-14 09:18:00,
2013-04-14 05:24:00,47.1,34.4,29.99,SW,225,3.1,5.4,61,0.00,,,0.00,pywws,2013-04-14 09:24:00,
2013-04-14 05:29:00,47.3,34.1,29.99,North,0,1.6,2.2,60,0.00,,,0.00,pywws,2013-04-14 09:29:00,
2013-04-14 05:35:00,47.3,34.1,29.99,North,0,2.2,3.1,60,0.00,,,0.00,pywws,2013-04-14 09:35:00,
2013-04-14 05:40:00,47.3,34.1,29.98,North,0,2.2,3.8,60,0.00,,,0.00,pywws,2013-04-14 09:40:00,
2013-04-14 05:46:00,47.1,34.0,29.99,North,0,2.2,3.1,60,0.00,,,0.00,pywws,2013-04-14 09:46:00,
2013-04-14 05:51:00,46.9,33.4,29.99,North,0,2.2,3.1,59,0.00,,,0.00,pywws,2013-04-14 09:51:00,
2013-04-14 05:56:00,46.8,33.2,29.98,SE,135,2.2,3.8,59,0.00,,,0.00,pywws,2013-04-14 09:56:00,
2013-04-14 06:02:00,46.8,33.2,29.99,NE,45,0.7,2.2,59,0.00,,,0.00,pywws,2013-04-14 10:02:00,
2013-04-14 06:08:00,46.4,33.3,29.99,North,0,1.6,3.1,60,0.00,,,0.00,pywws,2013-04-14 10:08:00,
2013-04-14 06:13:00,46.0,33.4,29.99,NW,315,1.6,2.2,61,0.00,,,0.00,pywws,2013-04-14 10:13:00,
2013-04-14 06:19:00,45.7,33.4,29.99,NW,315,1.6,2.2,62,0.00,,,0.00,pywws,2013-04-14 10:19:00,
2013-04-14 06:24:00,45.7,33.0,30.00,NW,315,1.6,3.1,61,0.00,,,0.00,pywws,2013-04-14 10:24:00,
2013-04-14 06:30:00,45.5,33.2,30.00,NE,45,0.0,0.0,62,0.00,,,0.00,pywws,2013-04-14 10:30:00,
2013-04-14 06:36:00,45.1,32.9,30.00,North,0,0.7,2.2,62,0.00,,,0.00,pywws,2013-04-14 10:36:00,
2013-04-14 06:41:00,45.7,33.4,30.00,WNW,292,3.8,7.6,62,0.00,,,0.00,pywws,2013-04-14 10:41:00,
2013-04-14 06:46:00,46.2,33.9,30.01,North,0,2.2,3.8,62,0.00,,,0.00,pywws,2013-04-14 10:46:00,
2013-04-14 06:52:00,46.2,33.9,30.01,NW,315,0.7,2.2,62,0.00,,,0.00,pywws,2013-04-14 10:52:00,
2013-04-14 06:57:00,46.0,34.2,30.01,West,270,1.6,3.1,63,0.00,,,0.00,pywws,2013-04-14 10:57:00,
2013-04-14 07:02:00,46.2,33.5,30.01,NW,315,0.7,1.6,61,0.00,,,0.00,pywws,2013-04-14 11:02:00,
2013-04-14 07:08:00,46.6,34.3,30.01,North,0,1.6,2.2,62,0.00,,,0.00,pywws,2013-04-14 11:08:00,
2013-04-14 07:13:00,46.6,34.3,30.01,NW,315,1.6,3.8,62,0.00,,,0.00,pywws,2013-04-14 11:13:00,
2013-04-14 07:19:00,46.6,33.9,30.01,West,270,2.2,3.1,61,0.00,,,0.00,pywws,2013-04-14 11:19:00,
2013-04-14 07:24:00,46.9,34.2,30.01,NW,315,3.1,5.4,61,0.00,,,0.00,pywws,2013-04-14 11:24:00,
2013-04-14 07:30:00,46.8,34.0,30.02,North,0,2.2,3.1,61,0.00,,,0.00,pywws,2013-04-14 11:30:00,
2013-04-14 07:36:00,46.8,33.6,30.02,ENE,68,3.1,5.4,60,0.00,,,0.00,pywws,2013-04-14 11:36:00,
2013-04-14 07:42:00,46.6,33.9,30.03,North,0,1.6,3.8,61,0.00,,,0.00,pywws,2013-04-14 11:42:00,
2013-04-14 07:47:00,46.4,34.5,30.03,NE,45,1.6,3.1,63,0.00,,,0.00,pywws,2013-04-14 11:47:00,
2013-04-14 07:52:00,46.2,33.9,30.03,North,0,3.8,5.4,62,0.00,,,0.00,pywws,2013-04-14 11:52:00,
2013-04-14 07:58:00,46.0,34.2,30.03,NE,45,4.5,6.9,63,0.00,,,0.00,pywws,2013-04-14 11:58:00,
2013-04-14 08:04:00,45.5,32.4,30.04,NE,45,3.1,3.8,60,0.00,,,0.00,pywws,2013-04-14 12:04:00,
2013-04-14 08:09:00,45.0,31.9,30.04,North,0,2.2,5.4,60,0.00,,,0.00,pywws,2013-04-14 12:09:00,
2013-04-14 08:15:00,44.8,31.3,30.04,NW,315,2.2,3.8,59,0.00,,,0.00,pywws,2013-04-14 12:15:00,
2013-04-14 08:20:00,44.8,31.3,30.04,NE,45,1.6,3.1,59,0.00,,,0.00,pywws,2013-04-14 12:20:00,
2013-04-14 08:26:00,44.8,30.5,30.04,East,90,1.6,3.1,57,0.00,,,0.00,pywws,2013-04-14 12:26:00,
2013-04-14 08:32:00,45.3,30.6,30.05,NE,45,2.2,3.8,56,0.00,,,0.00,pywws,2013-04-14 12:32:00,
2013-04-14 08:37:00,45.7,30.9,30.04,North,0,2.2,3.1,56,0.00,,,0.00,pywws,2013-04-14 12:37:00,
2013-04-14 08:43:00,45.7,30.5,30.05,SE,135,2.2,4.5,55,0.00,,,0.00,pywws,2013-04-14 12:43:00,
2013-04-14 08:48:00,46.4,31.6,30.05,NE,45,2.2,3.8,56,0.00,,,0.00,pywws,2013-04-14 12:48:00,
2013-04-14 08:54:00,46.6,31.3,30.05,NE,45,2.2,5.4,55,0.00,,,0.00,pywws,2013-04-14 12:54:00,
2013-04-14 09:00:00,47.1,31.3,30.06,East,90,2.2,5.4,54,0.00,,,0.00,pywws,2013-04-14 13:00:00,
2013-04-14 09:05:00,47.3,31.0,30.05,NE,45,2.2,3.8,53,0.00,,,0.00,pywws,2013-04-14 13:05:00,
2013-04-14 09:11:00,49.3,31.9,30.06,North,0,2.2,3.8,51,0.00,,,0.00,pywws,2013-04-14 13:11:00,
2013-04-14 09:16:00,49.3,30.9,30.05,North,0,3.1,6.0,49,0.00,,,0.00,pywws,2013-04-14 13:16:00,
2013-04-14 09:22:00,48.4,30.6,30.06,NNE,22,3.1,5.4,50,0.00,,,0.00,pywws,2013-04-14 13:22:00,
2013-04-14 09:28:00,47.7,30.9,30.05,NE,45,1.6,2.2,52,0.00,,,0.00,pywws,2013-04-14 13:28:00,
2013-04-14 09:33:00,48.6,31.3,30.06,NE,45,1.6,2.2,51,0.00,,,0.00,pywws,2013-04-14 13:33:00,
2013-04-14 09:39:00,47.7,30.4,30.06,NE,45,3.1,4.5,51,0.00,,,0.00,pywws,2013-04-14 13:39:00,
2013-04-14 09:44:00,47.5,30.3,30.06,South,180,2.2,4.5,51,0.00,,,0.00,pywws,2013-04-14 13:44:00,
2013-04-14 09:50:00,47.3,30.1,30.06,SE,135,3.1,6.0,51,0.00,,,0.00,pywws,2013-04-14 13:50:00,
2013-04-14 09:56:00,48.2,30.4,30.07,NW,315,2.2,3.8,50,0.00,,,0.00,pywws,2013-04-14 13:56:00,
2013-04-14 10:02:00,48.7,29.4,30.07,East,90,5.4,11.4,47,0.00,,,0.00,pywws,2013-04-14 14:02:00,
2013-04-14 10:07:00,50.0,31.1,30.07,NE,45,1.6,3.1,48,0.00,,,0.00,pywws,2013-04-14 14:07:00,
2013-04-14 10:12:00,50.5,30.5,30.08,NW,315,1.6,3.1,46,0.00,,,0.00,pywws,2013-04-14 14:12:00,
2013-04-14 10:18:00,50.5,30.5,30.07,North,0,3.8,5.4,46,0.00,,,0.00,pywws,2013-04-14 14:18:00,
2013-04-14 10:24:00,49.6,29.7,30.07,East,90,3.1,3.8,46,0.00,,,0.00,pywws,2013-04-14 14:24:00,
2013-04-14 10:29:00,49.8,31.4,30.07,NW,315,2.2,5.4,49,0.00,,,0.00,pywws,2013-04-14 14:29:00,
2013-04-14 10:34:00,49.6,30.2,30.08,NE,45,3.1,4.5,47,0.00,,,0.00,pywws,2013-04-14 14:34:00,
2013-04-14 10:40:00,50.4,30.9,30.08,North,0,3.1,3.8,47,0.00,,,0.00,pywws,2013-04-14 14:40:00,
2013-04-14 10:45:00,52.0,30.8,30.08,North,0,4.5,6.0,44,0.00,,,0.00,pywws,2013-04-14 14:45:00,
2013-04-14 10:51:00,51.6,30.4,30.08,North,0,3.1,4.5,44,0.00,,,0.00,pywws,2013-04-14 14:51:00,
2013-04-14 10:56:00,51.6,29.3,30.08,NE,45,5.4,7.6,42,0.00,,,0.00,pywws,2013-04-14 14:56:00,
2013-04-14 11:02:00,50.5,28.9,30.09,North,0,3.1,4.5,43,0.00,,,0.00,pywws,2013-04-14 15:02:00,
2013-04-14 11:08:00,50.2,28.6,30.09,North,0,3.1,7.6,43,0.00,,,0.00,pywws,2013-04-14 15:08:00,
2013-04-14 11:13:00,50.5,28.9,30.09,NNE,22,3.1,5.4,43,0.00,,,0.00,pywws,2013-04-14 15:13:00,
2013-04-14 11:19:00,51.6,30.4,30.10,North,0,4.5,6.9,44,0.00,,,0.00,pywws,2013-04-14 15:19:00,
2013-04-14 11:24:00,51.8,28.3,30.09,North,0,4.5,7.6,40,0.00,,,0.00,pywws,2013-04-14 15:24:00,
2013-04-14 11:30:00,51.3,27.8,30.10,NE,45,3.1,5.4,40,0.00,,,0.00,pywws,2013-04-14 15:30:00,
2013-04-14 11:36:00,52.0,28.4,30.10,NW,315,6.9,9.2,40,0.00,,,0.00,pywws,2013-04-14 15:36:00,
2013-04-14 11:41:00,50.9,24.9,30.10,East,90,2.2,3.1,36,0.00,,,0.00,pywws,2013-04-14 15:41:00,
2013-04-14 11:46:00,50.7,26.7,30.10,NNE,22,3.1,6.0,39,0.00,,,0.00,pywws,2013-04-14 15:46:00,
2013-04-14 11:51:00,50.4,25.7,30.11,North,0,2.2,6.9,38,0.00,,,0.00,pywws,2013-04-14 15:51:00,
2013-04-14 11:57:00,50.7,26.0,30.10,NE,45,2.2,3.8,38,0.00,,,0.00,pywws,2013-04-14 15:57:00,
2013-04-14 12:03:00,50.7,26.0,30.10,NW,315,3.1,5.4,38,0.00,,,0.00,pywws,2013-04-14 16:03:00,
2013-04-14 12:08:00,52.2,26.0,30.11,North,0,6.9,12.1,36,0.00,,,0.00,pywws,2013-04-14 16:08:00,
2013-04-14 12:14:00,52.5,26.3,30.10,South,180,3.8,6.0,36,0.00,,,0.00,pywws,2013-04-14 16:14:00,
2013-04-14 12:20:00,51.3,25.2,30.10,WNW,292,4.5,7.6,36,0.00,,,0.00,pywws,2013-04-14 16:20:00,
2013-04-14 12:25:00,52.0,27.2,30.10,North,0,3.8,6.0,38,0.00,,,0.00,pywws,2013-04-14 16:25:00,
2013-04-14 12:31:00,51.8,25.7,30.10,SW,225,3.8,6.0,36,0.00,,,0.00,pywws,2013-04-14 16:31:00,
2013-04-14 12:36:00,51.1,24.4,30.10,West,270,5.4,8.3,35,0.00,,,0.00,pywws,2013-04-14 16:36:00,
2013-04-14 12:42:00,50.9,25.6,30.09,North,0,3.8,6.0,37,0.00,,,0.00,pywws,2013-04-14 16:42:00,
2013-04-14 12:48:00,51.6,29.3,30.10,NE,45,3.1,4.5,42,0.00,,,0.00,pywws,2013-04-14 16:48:00,
2013-04-14 12:53:00,52.9,26.7,30.09,North,0,4.5,6.0,36,0.00,,,0.00,pywws,2013-04-14 16:53:00,
2013-04-14 12:59:00,52.3,26.8,30.10,NW,315,3.1,5.4,37,0.00,,,0.00,pywws,2013-04-14 16:59:00,
2013-04-14 13:04:00,51.8,24.3,30.10,NE,45,4.5,6.0,34,0.00,,,0.00,pywws,2013-04-14 17:04:00,
2013-04-14 13:10:00,52.0,25.9,30.10,West,270,4.5,7.6,36,0.00,,,0.00,pywws,2013-04-14 17:10:00,
2013-04-14 13:16:00,51.1,25.1,30.10,NE,45,3.8,6.9,36,0.00,,,0.00,pywws,2013-04-14 17:16:00,
2013-04-14 13:22:00,51.3,27.8,30.10,NW,315,4.5,6.0,40,0.00,,,0.00,pywws,2013-04-14 17:22:00,
2013-04-14 13:27:00,52.3,26.2,30.09,NW,315,3.1,5.4,36,0.00,,,0.00,pywws,2013-04-14 17:27:00,
2013-04-14 13:32:00,52.0,25.2,30.09,North,0,4.5,9.2,35,0.00,,,0.00,pywws,2013-04-14 17:32:00,
2013-04-14 13:38:00,53.2,28.9,30.10,North,0,3.1,4.5,39,0.00,,,0.00,pywws,2013-04-14 17:38:00,
2013-04-14 13:44:00,53.4,28.5,30.11,ENE,68,3.1,4.5,38,0.00,,,0.00,pywws,2013-04-14 17:44:00,
2013-04-14 13:49:00,53.4,29.1,30.10,SW,225,3.8,6.9,39,0.00,,,0.00,pywws,2013-04-14 17:49:00,
2013-04-14 13:55:00,55.2,28.1,30.10,North,0,3.1,3.8,35,0.00,,,0.00,pywws,2013-04-14 17:55:00,
2013-04-14 14:00:00,54.1,26.4,30.10,NE,45,2.2,3.8,34,0.00,,,0.00,pywws,2013-04-14 18:00:00,
2013-04-14 14:06:00,56.8,30.2,30.09,North,0,5.4,7.6,36,0.00,,,0.00,pywws,2013-04-14 18:06:00,
2013-04-14 14:12:00,56.3,29.0,30.10,North,0,3.1,4.5,35,0.00,,,0.00,pywws,2013-04-14 18:12:00,
2013-04-14 14:17:00,55.9,29.4,30.11,North,0,6.0,7.6,36,0.00,,,0.00,pywws,2013-04-14 18:17:00,
2013-04-14 14:23:00,57.4,30.0,30.10,NW,315,3.8,7.6,35,0.00,,,0.00,pywws,2013-04-14 18:23:00,
2013-04-14 14:28:00,56.5,25.4,30.11,West,270,4.5,9.2,30,0.00,,,0.00,pywws,2013-04-14 18:28:00,
2013-04-14 14:34:00,56.7,29.3,30.11,North,0,3.8,6.0,35,0.00,,,0.00,pywws,2013-04-14 18:34:00,
2013-04-14 14:40:00,57.4,27.8,30.10,NE,45,3.1,4.5,32,0.00,,,0.00,pywws,2013-04-14 18:40:00,
2013-04-14 14:45:00,56.5,29.2,30.11,NW,315,3.8,6.9,35,0.00,,,0.00,pywws,2013-04-14 18:45:00,
2013-04-14 14:51:00,57.4,27.0,30.11,North,0,3.1,6.0,31,0.00,,,0.00,pywws,2013-04-14 18:51:00,
2013-04-14 14:56:00,56.8,28.8,30.11,North,0,3.8,6.0,34,0.00,,,0.00,pywws,2013-04-14 18:56:00,
2013-04-14 15:02:00,57.7,29.6,30.11,NNE,22,4.5,7.6,34,0.00,,,0.00,pywws,2013-04-14 19:02:00,
2013-04-14 15:08:00,55.0,24.2,30.11,NE,45,3.8,5.4,30,0.00,,,0.00,pywws,2013-04-14 19:08:00,
2013-04-14 15:13:00,55.2,27.3,30.10,NW,315,3.8,10.7,34,0.00,,,0.00,pywws,2013-04-14 19:13:00,
2013-04-14 15:19:00,56.1,29.5,30.10,North,0,4.5,7.6,36,0.00,,,0.00,pywws,2013-04-14 19:19:00,
2013-04-14 15:24:00,56.7,29.3,30.10,NE,45,4.5,6.9,35,0.00,,,0.00,pywws,2013-04-14 19:24:00,
2013-04-14 15:30:00,56.5,29.2,30.10,NE,45,3.8,7.6,35,0.00,,,0.00,pywws,2013-04-14 19:30:00,
2013-04-14 15:36:00,56.1,28.1,30.11,North,0,3.1,3.8,34,0.00,,,0.00,pywws,2013-04-14 19:36:00,
2013-04-14 15:41:00,57.0,29.6,30.11,North,0,3.8,5.4,35,0.00,,,0.00,pywws,2013-04-14 19:41:00,
2013-04-14 15:47:00,57.2,27.6,30.11,North,0,3.1,6.0,32,0.00,,,0.00,pywws,2013-04-14 19:47:00,
2013-04-14 15:52:00,57.6,27.9,30.10,North,0,3.8,6.0,32,0.00,,,0.00,pywws,2013-04-14 19:52:00,
2013-04-14 15:58:00,57.9,25.9,30.10,NE,45,3.1,3.8,29,0.00,,,0.00,pywws,2013-04-14 19:58:00,
2013-04-14 16:04:00,57.6,27.2,30.10,East,90,2.2,5.4,31,0.00,,,0.00,pywws,2013-04-14 20:04:00,
2013-04-14 16:09:00,57.6,27.2,30.11,NE,45,3.8,5.4,31,0.00,,,0.00,pywws,2013-04-14 20:09:00,
2013-04-14 16:15:00,57.0,26.7,30.11,North,0,3.8,6.0,31,0.00,,,0.00,pywws,2013-04-14 20:15:00,
2013-04-14 16:20:00,57.2,25.2,30.11,NW,315,6.0,9.8,29,0.00,,,0.00,pywws,2013-04-14 20:20:00,
2013-04-14 16:26:00,57.4,27.0,30.11,NE,45,3.1,5.4,31,0.00,,,0.00,pywws,2013-04-14 20:26:00,
2013-04-14 16:31:00,57.7,27.3,30.11,North,0,3.1,5.4,31,0.00,,,0.00,pywws,2013-04-14 20:31:00,
2013-04-14 16:37:00,57.7,25.7,30.11,North,0,4.5,6.9,29,0.00,,,0.00,pywws,2013-04-14 20:37:00,
2013-04-14 16:42:00,57.0,25.9,30.12,NE,45,3.1,4.5,30,0.00,,,0.00,pywws,2013-04-14 20:42:00,
2013-04-14 16:47:00,57.2,26.1,30.12,NE,45,3.1,5.4,30,0.00,,,0.00,pywws,2013-04-14 20:47:00,
2013-04-14 16:52:00,57.2,26.1,30.13,East,90,3.8,5.4,30,0.00,,,0.00,pywws,2013-04-14 20:52:00,
2013-04-14 16:58:00,56.3,26.1,30.13,NW,315,3.8,4.5,31,0.00,,,0.00,pywws,2013-04-14 20:58:00,
2013-04-14 17:04:00,56.5,27.7,30.13,North,0,3.8,4.5,33,0.00,,,0.00,pywws,2013-04-14 21:04:00,
2013-04-14 17:09:00,56.7,28.6,30.13,NW,315,3.1,4.5,34,0.00,,,0.00,pywws,2013-04-14 21:09:00,
2013-04-14 17:15:00,55.4,28.2,30.14,NE,45,3.8,5.4,35,0.00,,,0.00,pywws,2013-04-14 21:15:00,
2013-04-14 17:20:00,55.2,27.3,30.14,North,0,2.2,3.8,34,0.00,,,0.00,pywws,2013-04-14 21:20:00,
2013-04-14 17:26:00,55.9,28.7,30.14,North,0,1.6,3.1,35,0.00,,,0.00,pywws,2013-04-14 21:26:00,
2013-04-14 17:32:00,56.5,27.0,30.14,North,0,2.2,4.5,32,0.00,,,0.00,pywws,2013-04-14 21:32:00,
2013-04-14 17:37:00,56.7,27.1,30.14,NNE,22,1.6,2.2,32,0.00,,,0.00,pywws,2013-04-14 21:37:00,
2013-04-14 17:43:00,56.1,28.1,30.14,NE,45,2.2,3.1,34,0.00,,,0.00,pywws,2013-04-14 21:43:00,
2013-04-14 17:48:00,55.6,27.7,30.14,North,0,3.1,4.5,34,0.00,,,0.00,pywws,2013-04-14 21:48:00,
2013-04-14 17:54:00,55.2,25.9,30.14,NE,45,3.1,5.4,32,0.00,,,0.00,pywws,2013-04-14 21:54:00,
2013-04-14 18:00:00,55.0,27.2,30.14,NE,45,3.1,4.5,34,0.00,,,0.00,pywws,2013-04-14 22:00:00,
2013-04-14 18:05:00,54.0,25.5,30.14,North,0,1.6,3.1,33,0.00,,,0.00,pywws,2013-04-14 22:05:00,
2013-04-14 18:11:00,53.2,26.3,30.14,North,0,1.6,3.1,35,0.00,,,0.00,pywws,2013-04-14 22:11:00,
2013-04-14 18:16:00,52.5,26.3,30.15,North,0,4.5,5.4,36,0.00,,,0.00,pywws,2013-04-14 22:16:00,
2013-04-14 18:22:00,52.0,27.2,30.15,NE,45,3.8,5.4,38,0.00,,,0.00,pywws,2013-04-14 22:22:00,
2013-04-14 18:28:00,51.4,27.3,30.15,NW,315,2.2,3.1,39,0.00,,,0.00,pywws,2013-04-14 22:28:00,
2013-04-14 18:33:00,51.1,28.2,30.16,North,0,2.2,3.1,41,0.00,,,0.00,pywws,2013-04-14 22:33:00,
2013-04-14 18:39:00,50.9,27.4,30.16,North,0,1.6,2.2,40,0.00,,,0.00,pywws,2013-04-14 22:39:00,
2013-04-14 18:44:00,50.7,28.5,30.16,North,0,2.2,3.8,42,0.00,,,0.00,pywws,2013-04-14 22:44:00,
2013-04-14 18:50:00,50.4,27.6,30.16,North,0,3.1,4.5,41,0.00,,,0.00,pywws,2013-04-14 22:50:00,
2013-04-14 18:56:00,50.0,27.2,30.16,NW,315,2.2,3.8,41,0.00,,,0.00,pywws,2013-04-14 22:56:00,
2013-04-14 19:01:00,49.6,28.6,30.16,NE,45,0.7,2.2,44,0.00,,,0.00,pywws,2013-04-14 23:01:00,
2013-04-14 19:07:00,49.3,28.3,30.17,NE,45,1.6,2.2,44,0.00,,,0.00,pywws,2013-04-14 23:07:00,
2013-04-14 19:12:00,48.7,27.8,30.17,NE,45,0.7,1.6,44,0.00,,,0.00,pywws,2013-04-14 23:12:00,
2013-04-14 19:18:00,48.2,27.3,30.17,North,0,0.0,0.7,44,0.00,,,0.00,pywws,2013-04-14 23:18:00,
2013-04-14 19:24:00,47.7,27.9,30.18,NE,45,0.7,1.6,46,0.00,,,0.00,pywws,2013-04-14 23:24:00,
2013-04-14 19:29:00,47.1,27.9,30.19,East,90,0.0,0.7,47,0.00,,,0.00,pywws,2013-04-14 23:29:00,
2013-04-14 19:35:00,46.8,27.6,30.19,East,90,0.7,1.6,47,0.00,,,0.00,pywws,2013-04-14 23:35:00,
2013-04-14 19:40:00,46.2,26.6,30.19,NE,45,0.0,0.0,46,0.00,,,0.00,pywws,2013-04-14 23:40:00,
2013-04-14 19:46:00,45.9,26.8,30.19,NE,45,0.7,2.2,47,0.00,,,0.00,pywws,2013-04-14 23:46:00,
2013-04-14 19:53:00,45.3,26.3,30.19,East,90,0.7,1.6,47,0.00,,,0.00,pywws,2013-04-14 23:53:00,
2013-04-14 19:59:00,44.8,26.8,30.20,East,90,0.0,0.7,49,0.00,,,0.00,pywws,2013-04-14 23:59:00,
2013-04-14 20:04:00,44.8,27.3,30.20,East,90,0.0,0.7,50,0.00,,,0.00,pywws,2013-04-15 00:04:00,
2013-04-14 20:10:00,44.8,26.8,30.20,East,90,0.0,0.0,49,0.00,,,0.00,pywws,2013-04-15 00:10:00,
2013-04-14 20:16:00,44.8,26.8,30.21,NE,45,0.0,0.0,49,0.00,,,0.00,pywws,2013-04-15 00:16:00,
2013-04-14 20:23:00,44.6,27.1,30.21,East,90,0.0,0.7,50,0.00,,,0.00,pywws,2013-04-15 00:23:00,
2013-04-14 20:28:00,44.4,27.9,30.21,NE,45,0.0,0.0,52,0.00,,,0.00,pywws,2013-04-15 00:28:00,
2013-04-14 20:33:00,44.2,27.7,30.21,NE,45,0.0,0.0,52,0.00,,,0.00,pywws,2013-04-15 00:33:00,
2013-04-14 20:39:00,44.1,27.6,30.22,NE,45,0.0,0.7,52,0.00,,,0.00,pywws,2013-04-15 00:39:00,
2013-04-14 20:44:00,43.7,27.7,30.22,East,90,0.7,1.6,53,0.00,,,0.00,pywws,2013-04-15 00:44:00,
2013-04-14 20:50:00,43.2,27.7,30.21,NE,45,0.0,0.0,54,0.00,,,0.00,pywws,2013-04-15 00:50:00,
2013-04-14 20:56:00,43.2,28.1,30.21,North,0,0.0,0.0,55,0.00,,,0.00,pywws,2013-04-15 00:56:00,
2013-04-14 21:01:00,43.3,27.8,30.22,East,90,0.0,0.0,54,0.00,,,0.00,pywws,2013-04-15 01:01:00,
2013-04-14 21:07:00,42.8,27.3,30.22,East,90,0.7,1.6,54,0.00,,,0.00,pywws,2013-04-15 01:07:00,
2013-04-14 21:12:00,42.4,27.9,30.22,NE,45,0.0,0.0,56,0.00,,,0.00,pywws,2013-04-15 01:12:00,
2013-04-14 21:18:00,42.6,28.5,30.22,SW,225,0.7,1.6,57,0.00,,,0.00,pywws,2013-04-15 01:18:00,
2013-04-14 21:24:00,42.8,27.8,30.22,NE,45,0.0,0.0,55,0.00,,,0.00,pywws,2013-04-15 01:24:00,
2013-04-14 21:29:00,43.0,27.9,30.22,East,90,0.0,0.7,55,0.00,,,0.00,pywws,2013-04-15 01:29:00,
2013-04-14 21:35:00,43.0,27.5,30.22,East,90,0.0,0.7,54,0.00,,,0.00,pywws,2013-04-15 01:35:00,
2013-04-14 21:40:00,42.6,27.6,30.22,NE,45,0.7,1.6,55,0.00,,,0.00,pywws,2013-04-15 01:40:00,
2013-04-14 21:46:00,42.3,27.3,30.22,East,90,0.0,1.6,55,0.00,,,0.00,pywws,2013-04-15 01:46:00,
2013-04-14 21:52:00,42.4,27.4,30.22,East,90,0.0,1.6,55,0.00,,,0.00,pywws,2013-04-15 01:52:00,
2013-04-14 21:57:00,42.6,27.6,30.22,NE,45,0.0,0.7,55,0.00,,,0.00,pywws,2013-04-15 01:57:00,
2013-04-14 22:02:00,42.6,27.2,30.22,NE,45,0.0,0.7,54,0.00,,,0.00,pywws,2013-04-15 02:02:00,
2013-04-14 22:08:00,42.4,27.0,30.22,West,270,0.0,0.7,54,0.00,,,0.00,pywws,2013-04-15 02:08:00,
2013-04-14 22:14:00,42.3,27.3,30.23,East,90,0.0,0.7,55,0.00,,,0.00,pywws,2013-04-15 02:14:00,
2013-04-14 22:20:00,42.3,27.3,30.23,North,0,0.0,0.7,55,0.00,,,0.00,pywws,2013-04-15 02:20:00,
2013-04-14 22:25:00,42.1,27.1,30.23,NE,45,0.0,0.0,55,0.00,,,0.00,pywws,2013-04-15 02:25:00,
2013-04-14 22:31:00,41.9,26.9,30.23,East,90,0.0,0.7,55,0.00,,,0.00,pywws,2013-04-15 02:31:00,
2013-04-14 22:36:00,41.7,27.2,30.23,East,90,0.0,0.7,56,0.00,,,0.00,pywws,2013-04-15 02:36:00,
2013-04-14 22:42:00,41.7,26.8,30.23,NE,45,0.0,0.0,55,0.00,,,0.00,pywws,2013-04-15 02:42:00,
2013-04-14 22:48:00,41.5,27.0,30.24,NE,45,0.0,0.0,56,0.00,,,0.00,pywws,2013-04-15 02:48:00,
2013-04-14 22:53:00,41.5,27.0,30.23,SE,135,0.0,0.7,56,0.00,,,0.00,pywws,2013-04-15 02:53:00,
2013-04-14 22:59:00,41.5,27.0,30.24,NE,45,0.0,0.7,56,0.00,,,0.00,pywws,2013-04-15 02:59:00,
2013-04-14 23:04:00,41.4,26.9,30.24,East,90,0.7,1.6,56,0.00,,,0.00,pywws,2013-04-15 03:04:00,
2013-04-14 23:10:00,41.2,26.7,30.24,East,90,0.7,1.6,56,0.00,,,0.00,pywws,2013-04-15 03:10:00,
2013-04-14 23:16:00,40.8,27.2,30.24,North,0,0.0,0.0,58,0.00,,,0.00,pywws,2013-04-15 03:16:00,
2013-04-14 23:21:00,40.8,27.6,30.24,SW,225,0.0,0.7,59,0.00,,,0.00,pywws,2013-04-15 03:21:00,
2013-04-14 23:27:00,40.8,27.2,30.24,East,90,0.0,0.0,58,0.00,,,0.00,pywws,2013-04-15 03:27:00,
2013-04-14 23:33:00,40.8,27.2,30.24,East,90,0.0,0.7,58,0.00,,,0.00,pywws,2013-04-15 03:33:00,
2013-04-14 23:39:00,40.5,27.3,30.23,NE,45,0.0,0.0,59,0.00,,,0.00,pywws,2013-04-15 03:39:00,
2013-04-14 23:44:00,40.5,27.7,30.24,North,0,0.0,0.0,60,0.00,,,0.00,pywws,2013-04-15 03:44:00,
2013-04-14 23:50:00,40.5,27.7,30.24,North,0,0.0,0.0,60,0.00,,,0.00,pywws,2013-04-15 03:50:00,
2013-04-14 23:56:00,40.3,27.9,30.24,NE,45,0.0,0.0,61,0.00,,,0.00,pywws,2013-04-15 03:56:00,